sensor_id;sensor_type;location;lat;lon;timestamp;P1;durP1;ratioP1;P2;durP2;ratioP2
38940;SDS011;43236;47.208;7.518;2024-02-26T00:03:23;0.60;;;0.60;;
38940;SDS011;43236;47.208;7.518;2024-02-26T00:06:10;1.23;;;1.00;;
38940;SDS011;43236;47.208;7.518;2024-02-26T00:08:57;0.40;;;0.40;;
38940;SDS011;43236;47.208;7.518;2024-02-26T00:11:46;0.47;;;0.47;;
38940;SDS011;43236;47.208;7.518;2024-02-26T00:14:33;0.50;;;0.50;;
38940;SDS011;43236;47.208;7.518;2024-02-26T00:17:20;0.50;;;0.50;;
38940;SDS011;43236;47.208;7.518;2024-02-26T00:20:07;0.50;;;0.50;;
38940;SDS011;43236;47.208;7.518;2024-02-26T00:22:56;0.60;;;0.60;;
38940;SDS011;43236;47.208;7.518;2024-02-26T00:25:43;1.83;;;0.52;;
38940;SDS011;43236;47.208;7.518;2024-02-26T00:28:32;0.63;;;0.63;;
38940;SDS011;43236;47.208;7.518;2024-02-26T00:31:19;0.40;;;0.40;;
38940;SDS011;43236;47.208;7.518;2024-02-26T00:34:06;0.50;;;0.50;;
38940;SDS011;43236;47.208;7.518;2024-02-26T00:36:53;0.70;;;0.70;;
38940;SDS011;43236;47.208;7.518;2024-02-26T00:39:40;0.50;;;0.50;;
38940;SDS011;43236;47.208;7.518;2024-02-26T00:42:27;4.07;;;0.70;;
38940;SDS011;43236;47.208;7.518;2024-02-26T00:45:15;0.57;;;0.57;;
38940;SDS011;43236;47.208;7.518;2024-02-26T00:48:02;0.30;;;0.30;;
38940;SDS011;43236;47.208;7.518;2024-02-26T00:50:50;0.43;;;0.43;;
38940;SDS011;43236;47.208;7.518;2024-02-26T00:53:37;0.40;;;0.40;;
38940;SDS011;43236;47.208;7.518;2024-02-26T00:56:25;0.80;;;0.80;;
38940;SDS011;43236;47.208;7.518;2024-02-26T00:59:12;0.38;;;0.38;;
38940;SDS011;43236;47.208;7.518;2024-02-26T01:02:00;1.13;;;1.05;;
38940;SDS011;43236;47.208;7.518;2024-02-26T01:04:47;2.42;;;1.35;;
38940;SDS011;43236;47.208;7.518;2024-02-26T01:07:34;0.68;;;0.68;;
38940;SDS011;43236;47.208;7.518;2024-02-26T01:10:22;1.08;;;1.00;;
38940;SDS011;43236;47.208;7.518;2024-02-26T01:13:09;0.80;;;0.80;;
38940;SDS011;43236;47.208;7.518;2024-02-26T01:15:56;1.15;;;1.13;;
38940;SDS011;43236;47.208;7.518;2024-02-26T01:18:44;0.82;;;0.82;;
38940;SDS011;43236;47.208;7.518;2024-02-26T01:21:31;0.82;;;0.73;;
38940;SDS011;43236;47.208;7.518;2024-02-26T01:24:18;0.60;;;0.60;;
38940;SDS011;43236;47.208;7.518;2024-02-26T01:27:05;0.70;;;0.70;;
38940;SDS011;43236;47.208;7.518;2024-02-26T01:29:53;0.90;;;0.70;;
38940;SDS011;43236;47.208;7.518;2024-02-26T01:32:40;0.60;;;0.57;;
38940;SDS011;43236;47.208;7.518;2024-02-26T01:35:29;3.42;;;0.77;;
38940;SDS011;43236;47.208;7.518;2024-02-26T01:38:16;1.63;;;0.90;;
38940;SDS011;43236;47.208;7.518;2024-02-26T01:41:03;0.60;;;0.60;;
38940;SDS011;43236;47.208;7.518;2024-02-26T01:43:50;0.70;;;0.50;;
38940;SDS011;43236;47.208;7.518;2024-02-26T01:46:37;0.75;;;0.75;;
38940;SDS011;43236;47.208;7.518;2024-02-26T01:49:24;1.02;;;0.90;;
38940;SDS011;43236;47.208;7.518;2024-02-26T01:52:14;0.80;;;0.80;;
38940;SDS011;43236;47.208;7.518;2024-02-26T01:55:01;0.98;;;0.90;;
38940;SDS011;43236;47.208;7.518;2024-02-26T01:57:49;0.50;;;0.50;;
38940;SDS011;43236;47.208;7.518;2024-02-26T02:00:38;1.85;;;0.80;;
38940;SDS011;43236;47.208;7.518;2024-02-26T02:03:25;0.85;;;0.85;;
38940;SDS011;43236;47.208;7.518;2024-02-26T02:06:13;0.50;;;0.50;;
38940;SDS011;43236;47.208;7.518;2024-02-26T02:09:02;0.93;;;0.90;;
38940;SDS011;43236;47.208;7.518;2024-02-26T02:11:51;0.73;;;0.73;;
38940;SDS011;43236;47.208;7.518;2024-02-26T02:14:39;1.65;;;0.70;;
38940;SDS011;43236;47.208;7.518;2024-02-26T02:17:26;1.75;;;1.05;;
38940;SDS011;43236;47.208;7.518;2024-02-26T02:20:17;0.90;;;0.90;;
38940;SDS011;43236;47.208;7.518;2024-02-26T02:23:06;2.60;;;0.85;;
38940;SDS011;43236;47.208;7.518;2024-02-26T02:25:53;2.50;;;0.82;;
38940;SDS011;43236;47.208;7.518;2024-02-26T02:28:41;0.70;;;0.70;;
38940;SDS011;43236;47.208;7.518;2024-02-26T02:31:28;0.60;;;0.60;;
38940;SDS011;43236;47.208;7.518;2024-02-26T02:34:15;3.10;;;1.13;;
38940;SDS011;43236;47.208;7.518;2024-02-26T02:37:02;1.05;;;0.85;;
38940;SDS011;43236;47.208;7.518;2024-02-26T02:39:51;0.60;;;0.60;;
38940;SDS011;43236;47.208;7.518;2024-02-26T02:42:40;0.80;;;0.80;;
38940;SDS011;43236;47.208;7.518;2024-02-26T02:45:27;0.85;;;0.85;;
38940;SDS011;43236;47.208;7.518;2024-02-26T02:48:14;0.73;;;0.60;;
38940;SDS011;43236;47.208;7.518;2024-02-26T02:51:01;1.00;;;0.90;;
38940;SDS011;43236;47.208;7.518;2024-02-26T02:53:48;0.82;;;0.82;;
38940;SDS011;43236;47.208;7.518;2024-02-26T02:56:37;1.13;;;1.08;;
38940;SDS011;43236;47.208;7.518;2024-02-26T02:59:24;1.65;;;1.08;;
38940;SDS011;43236;47.208;7.518;2024-02-26T03:02:11;1.27;;;0.88;;
38940;SDS011;43236;47.208;7.518;2024-02-26T03:04:58;0.50;;;0.50;;
38940;SDS011;43236;47.208;7.518;2024-02-26T03:07:45;0.63;;;0.63;;
38940;SDS011;43236;47.208;7.518;2024-02-26T03:10:32;0.60;;;0.60;;
38940;SDS011;43236;47.208;7.518;2024-02-26T03:13:21;0.85;;;0.85;;
38940;SDS011;43236;47.208;7.518;2024-02-26T03:16:08;0.50;;;0.50;;
38940;SDS011;43236;47.208;7.518;2024-02-26T03:18:55;1.05;;;1.05;;
38940;SDS011;43236;47.208;7.518;2024-02-26T03:21:42;0.50;;;0.50;;
38940;SDS011;43236;47.208;7.518;2024-02-26T03:24:29;0.47;;;0.47;;
38940;SDS011;43236;47.208;7.518;2024-02-26T03:27:16;0.52;;;0.52;;
38940;SDS011;43236;47.208;7.518;2024-02-26T03:30:05;0.52;;;0.52;;
38940;SDS011;43236;47.208;7.518;2024-02-26T03:32:53;0.40;;;0.40;;
38940;SDS011;43236;47.208;7.518;2024-02-26T03:35:40;0.60;;;0.50;;
38940;SDS011;43236;47.208;7.518;2024-02-26T03:38:28;0.52;;;0.52;;
38940;SDS011;43236;47.208;7.518;2024-02-26T03:41:15;0.35;;;0.35;;
38940;SDS011;43236;47.208;7.518;2024-02-26T03:44:02;0.35;;;0.35;;
38940;SDS011;43236;47.208;7.518;2024-02-26T03:46:51;0.50;;;0.50;;
38940;SDS011;43236;47.208;7.518;2024-02-26T03:49:38;0.60;;;0.60;;
38940;SDS011;43236;47.208;7.518;2024-02-26T03:52:25;0.50;;;0.50;;
38940;SDS011;43236;47.208;7.518;2024-02-26T03:55:12;0.60;;;0.60;;
38940;SDS011;43236;47.208;7.518;2024-02-26T03:57:59;0.60;;;0.60;;
38940;SDS011;43236;47.208;7.518;2024-02-26T04:00:46;0.47;;;0.47;;
38940;SDS011;43236;47.208;7.518;2024-02-26T04:03:35;0.40;;;0.40;;
38940;SDS011;43236;47.208;7.518;2024-02-26T04:06:22;0.40;;;0.40;;
38940;SDS011;43236;47.208;7.518;2024-02-26T04:09:09;0.47;;;0.47;;
38940;SDS011;43236;47.208;7.518;2024-02-26T04:11:56;0.52;;;0.52;;
38940;SDS011;43236;47.208;7.518;2024-02-26T04:14:46;0.50;;;0.50;;
38940;SDS011;43236;47.208;7.518;2024-02-26T04:17:33;0.60;;;0.60;;
38940;SDS011;43236;47.208;7.518;2024-02-26T04:20:21;0.50;;;0.50;;
38940;SDS011;43236;47.208;7.518;2024-02-26T04:23:09;0.40;;;0.40;;
38940;SDS011;43236;47.208;7.518;2024-02-26T04:25:56;0.60;;;0.60;;
38940;SDS011;43236;47.208;7.518;2024-02-26T04:28:43;0.40;;;0.40;;
38940;SDS011;43236;47.208;7.518;2024-02-26T04:31:30;0.55;;;0.55;;
38940;SDS011;43236;47.208;7.518;2024-02-26T04:34:18;0.68;;;0.68;;
38940;SDS011;43236;47.208;7.518;2024-02-26T04:37:06;0.50;;;0.50;;
38940;SDS011;43236;47.208;7.518;2024-02-26T04:39:53;0.70;;;0.70;;
38940;SDS011;43236;47.208;7.518;2024-02-26T04:42:40;0.55;;;0.55;;
38940;SDS011;43236;47.208;7.518;2024-02-26T04:45:27;1.13;;;0.80;;
38940;SDS011;43236;47.208;7.518;2024-02-26T04:48:14;1.75;;;0.90;;
38940;SDS011;43236;47.208;7.518;2024-02-26T04:51:01;0.60;;;0.60;;
38940;SDS011;43236;47.208;7.518;2024-02-26T04:53:50;0.68;;;0.68;;
38940;SDS011;43236;47.208;7.518;2024-02-26T04:56:38;0.60;;;0.60;;
38940;SDS011;43236;47.208;7.518;2024-02-26T04:59:25;0.50;;;0.50;;
38940;SDS011;43236;47.208;7.518;2024-02-26T05:02:13;0.60;;;0.60;;
38940;SDS011;43236;47.208;7.518;2024-02-26T05:05:00;0.70;;;0.70;;
38940;SDS011;43236;47.208;7.518;2024-02-26T05:07:47;0.70;;;0.70;;
38940;SDS011;43236;47.208;7.518;2024-02-26T05:10:36;0.70;;;0.70;;
38940;SDS011;43236;47.208;7.518;2024-02-26T05:13:26;1.42;;;0.98;;
38940;SDS011;43236;47.208;7.518;2024-02-26T05:16:13;0.77;;;0.77;;
38940;SDS011;43236;47.208;7.518;2024-02-26T05:19:00;0.60;;;0.60;;
38940;SDS011;43236;47.208;7.518;2024-02-26T05:21:48;0.50;;;0.50;;
38940;SDS011;43236;47.208;7.518;2024-02-26T05:24:37;0.93;;;0.80;;
38940;SDS011;43236;47.208;7.518;2024-02-26T05:27:25;1.13;;;0.88;;
38940;SDS011;43236;47.208;7.518;2024-02-26T05:30:12;0.50;;;0.50;;
38940;SDS011;43236;47.208;7.518;2024-02-26T05:33:00;1.38;;;1.27;;
38940;SDS011;43236;47.208;7.518;2024-02-26T05:35:47;0.40;;;0.40;;
38940;SDS011;43236;47.208;7.518;2024-02-26T05:38:34;0.80;;;0.60;;
38940;SDS011;43236;47.208;7.518;2024-02-26T05:41:21;0.73;;;0.73;;
38940;SDS011;43236;47.208;7.518;2024-02-26T05:44:12;0.60;;;0.60;;
38940;SDS011;43236;47.208;7.518;2024-02-26T05:47:00;0.93;;;0.82;;
38940;SDS011;43236;47.208;7.518;2024-02-26T05:49:47;0.80;;;0.60;;
38940;SDS011;43236;47.208;7.518;2024-02-26T05:52:34;0.68;;;0.60;;
38940;SDS011;43236;47.208;7.518;2024-02-26T05:55:21;0.55;;;0.55;;
38940;SDS011;43236;47.208;7.518;2024-02-26T05:58:08;0.95;;;0.95;;
38940;SDS011;43236;47.208;7.518;2024-02-26T06:00:56;1.90;;;0.55;;
38940;SDS011;43236;47.208;7.518;2024-02-26T06:03:43;0.70;;;0.70;;
38940;SDS011;43236;47.208;7.518;2024-02-26T06:06:30;1.95;;;1.00;;
38940;SDS011;43236;47.208;7.518;2024-02-26T06:09:17;0.40;;;0.40;;
38940;SDS011;43236;47.208;7.518;2024-02-26T06:12:05;1.27;;;0.80;;
38940;SDS011;43236;47.208;7.518;2024-02-26T06:14:52;1.15;;;1.05;;
38940;SDS011;43236;47.208;7.518;2024-02-26T06:17:41;0.63;;;0.63;;
38940;SDS011;43236;47.208;7.518;2024-02-26T06:20:28;0.70;;;0.70;;
38940;SDS011;43236;47.208;7.518;2024-02-26T06:23:17;0.80;;;0.80;;
38940;SDS011;43236;47.208;7.518;2024-02-26T06:26:05;0.75;;;0.75;;
38940;SDS011;43236;47.208;7.518;2024-02-26T06:28:52;1.48;;;1.35;;
38940;SDS011;43236;47.208;7.518;2024-02-26T06:31:40;1.73;;;1.15;;
38940;SDS011;43236;47.208;7.518;2024-02-26T06:34:28;1.05;;;0.82;;
38940;SDS011;43236;47.208;7.518;2024-02-26T06:37:15;1.40;;;1.30;;
38940;SDS011;43236;47.208;7.518;2024-02-26T06:40:02;1.15;;;0.90;;
38940;SDS011;43236;47.208;7.518;2024-02-26T06:42:51;0.70;;;0.70;;
38940;SDS011;43236;47.208;7.518;2024-02-26T06:45:39;0.80;;;0.80;;
38940;SDS011;43236;47.208;7.518;2024-02-26T06:48:26;1.00;;;0.90;;
38940;SDS011;43236;47.208;7.518;2024-02-26T06:51:14;2.05;;;1.05;;
38940;SDS011;43236;47.208;7.518;2024-02-26T06:54:01;0.70;;;0.70;;
38940;SDS011;43236;47.208;7.518;2024-02-26T06:56:48;1.13;;;1.00;;
38940;SDS011;43236;47.208;7.518;2024-02-26T06:59:35;1.95;;;1.50;;
38940;SDS011;43236;47.208;7.518;2024-02-26T07:02:22;1.88;;;1.70;;
38940;SDS011;43236;47.208;7.518;2024-02-26T07:05:09;1.60;;;1.25;;
38940;SDS011;43236;47.208;7.518;2024-02-26T07:07:58;1.33;;;1.10;;
38940;SDS011;43236;47.208;7.518;2024-02-26T07:10:45;1.92;;;1.35;;
38940;SDS011;43236;47.208;7.518;2024-02-26T07:13:32;1.35;;;1.27;;
38940;SDS011;43236;47.208;7.518;2024-02-26T07:16:19;0.95;;;0.93;;
38940;SDS011;43236;47.208;7.518;2024-02-26T07:19:06;2.08;;;1.10;;
38940;SDS011;43236;47.208;7.518;2024-02-26T07:21:53;0.85;;;0.85;;
38940;SDS011;43236;47.208;7.518;2024-02-26T07:24:42;0.98;;;0.90;;
38940;SDS011;43236;47.208;7.518;2024-02-26T07:27:29;1.10;;;1.00;;
38940;SDS011;43236;47.208;7.518;2024-02-26T07:30:16;1.10;;;1.00;;
38940;SDS011;43236;47.208;7.518;2024-02-26T07:33:03;1.20;;;1.08;;
38940;SDS011;43236;47.208;7.518;2024-02-26T07:35:50;1.48;;;1.38;;
38940;SDS011;43236;47.208;7.518;2024-02-26T07:38:39;1.15;;;1.05;;
38940;SDS011;43236;47.208;7.518;2024-02-26T07:41:27;2.13;;;1.45;;
38940;SDS011;43236;47.208;7.518;2024-02-26T07:44:14;1.38;;;1.27;;
38940;SDS011;43236;47.208;7.518;2024-02-26T07:47:01;1.08;;;0.95;;
38940;SDS011;43236;47.208;7.518;2024-02-26T07:49:49;1.63;;;1.52;;
38940;SDS011;43236;47.208;7.518;2024-02-26T07:52:36;1.38;;;1.25;;
38940;SDS011;43236;47.208;7.518;2024-02-26T07:55:23;1.08;;;1.00;;
38940;SDS011;43236;47.208;7.518;2024-02-26T07:58:11;2.08;;;1.27;;
38940;SDS011;43236;47.208;7.518;2024-02-26T08:00:58;1.65;;;1.30;;
38940;SDS011;43236;47.208;7.518;2024-02-26T08:03:45;1.85;;;0.98;;
38940;SDS011;43236;47.208;7.518;2024-02-26T08:06:32;1.20;;;1.10;;
38940;SDS011;43236;47.208;7.518;2024-02-26T08:09:19;2.40;;;1.80;;
38940;SDS011;43236;47.208;7.518;2024-02-26T08:12:06;1.15;;;1.10;;
38940;SDS011;43236;47.208;7.518;2024-02-26T08:14:55;0.90;;;0.90;;
38940;SDS011;43236;47.208;7.518;2024-02-26T08:17:43;1.35;;;1.10;;
38940;SDS011;43236;47.208;7.518;2024-02-26T08:20:32;1.35;;;1.25;;
38940;SDS011;43236;47.208;7.518;2024-02-26T08:23:20;2.17;;;1.00;;
38940;SDS011;43236;47.208;7.518;2024-02-26T08:26:07;3.10;;;1.10;;
38940;SDS011;43236;47.208;7.518;2024-02-26T08:28:56;0.90;;;0.90;;
38940;SDS011;43236;47.208;7.518;2024-02-26T08:31:45;2.42;;;1.08;;
38940;SDS011;43236;47.208;7.518;2024-02-26T08:34:32;0.95;;;0.80;;
38940;SDS011;43236;47.208;7.518;2024-02-26T08:37:19;0.60;;;0.60;;
38940;SDS011;43236;47.208;7.518;2024-02-26T08:40:06;0.70;;;0.70;;
38940;SDS011;43236;47.208;7.518;2024-02-26T08:42:55;0.80;;;0.80;;
38940;SDS011;43236;47.208;7.518;2024-02-26T08:45:43;1.63;;;0.90;;
38940;SDS011;43236;47.208;7.518;2024-02-26T08:48:31;1.13;;;1.00;;
38940;SDS011;43236;47.208;7.518;2024-02-26T08:51:18;1.60;;;1.50;;
38940;SDS011;43236;47.208;7.518;2024-02-26T08:54:05;1.10;;;0.82;;
38940;SDS011;43236;47.208;7.518;2024-02-26T08:56:52;1.00;;;0.90;;
38940;SDS011;43236;47.208;7.518;2024-02-26T08:59:39;0.80;;;0.80;;
38940;SDS011;43236;47.208;7.518;2024-02-26T09:02:26;0.63;;;0.63;;
38940;SDS011;43236;47.208;7.518;2024-02-26T09:05:14;1.83;;;1.10;;
38940;SDS011;43236;47.208;7.518;2024-02-26T09:08:02;1.27;;;1.05;;
38940;SDS011;43236;47.208;7.518;2024-02-26T09:10:49;0.93;;;0.93;;
38940;SDS011;43236;47.208;7.518;2024-02-26T09:13:36;1.65;;;0.95;;
38940;SDS011;43236;47.208;7.518;2024-02-26T09:16:24;0.98;;;0.90;;
38940;SDS011;43236;47.208;7.518;2024-02-26T09:19:11;0.73;;;0.73;;
38940;SDS011;43236;47.208;7.518;2024-02-26T09:22:00;1.45;;;0.93;;
38940;SDS011;43236;47.208;7.518;2024-02-26T09:24:47;1.13;;;1.02;;
38940;SDS011;43236;47.208;7.518;2024-02-26T09:27:35;1.10;;;0.90;;
38940;SDS011;43236;47.208;7.518;2024-02-26T09:30:22;1.27;;;1.17;;
38940;SDS011;43236;47.208;7.518;2024-02-26T09:33:09;1.48;;;1.38;;
38940;SDS011;43236;47.208;7.518;2024-02-26T09:35:57;1.15;;;1.05;;
38940;SDS011;43236;47.208;7.518;2024-02-26T09:38:46;0.80;;;0.80;;
38940;SDS011;43236;47.208;7.518;2024-02-26T09:41:33;0.85;;;0.85;;
38940;SDS011;43236;47.208;7.518;2024-02-26T09:44:20;1.88;;;0.98;;
38940;SDS011;43236;47.208;7.518;2024-02-26T09:47:07;1.30;;;1.00;;
38940;SDS011;43236;47.208;7.518;2024-02-26T09:49:58;1.13;;;1.10;;
38940;SDS011;43236;47.208;7.518;2024-02-26T09:52:48;1.40;;;1.30;;
38940;SDS011;43236;47.208;7.518;2024-02-26T09:55:36;1.95;;;1.25;;
38940;SDS011;43236;47.208;7.518;2024-02-26T09:58:24;1.38;;;1.13;;
38940;SDS011;43236;47.208;7.518;2024-02-26T10:01:13;1.27;;;1.17;;
38940;SDS011;43236;47.208;7.518;2024-02-26T10:04:03;1.30;;;1.17;;
38940;SDS011;43236;47.208;7.518;2024-02-26T10:06:51;1.90;;;1.33;;
38940;SDS011;43236;47.208;7.518;2024-02-26T10:09:38;1.35;;;1.25;;
38940;SDS011;43236;47.208;7.518;2024-02-26T10:12:27;1.08;;;0.98;;
38940;SDS011;43236;47.208;7.518;2024-02-26T10:15:16;0.88;;;0.88;;
38940;SDS011;43236;47.208;7.518;2024-02-26T10:18:03;0.70;;;0.70;;
38940;SDS011;43236;47.208;7.518;2024-02-26T10:21:00;0.80;;;0.80;;
38940;SDS011;43236;47.208;7.518;2024-02-26T10:23:47;0.70;;;0.70;;
38940;SDS011;43236;47.208;7.518;2024-02-26T10:26:35;1.10;;;0.80;;
38940;SDS011;43236;47.208;7.518;2024-02-26T10:29:24;0.85;;;0.77;;
38940;SDS011;43236;47.208;7.518;2024-02-26T10:32:11;1.13;;;0.98;;
38940;SDS011;43236;47.208;7.518;2024-02-26T10:35:01;0.73;;;0.73;;
38940;SDS011;43236;47.208;7.518;2024-02-26T10:37:49;0.90;;;0.70;;
38940;SDS011;43236;47.208;7.518;2024-02-26T10:40:37;0.70;;;0.70;;
38940;SDS011;43236;47.208;7.518;2024-02-26T10:43:24;1.55;;;0.93;;
38940;SDS011;43236;47.208;7.518;2024-02-26T10:46:13;1.17;;;0.73;;
38940;SDS011;43236;47.208;7.518;2024-02-26T10:49:00;1.02;;;0.95;;
38940;SDS011;43236;47.208;7.518;2024-02-26T10:51:50;1.10;;;0.93;;
38940;SDS011;43236;47.208;7.518;2024-02-26T10:54:41;1.30;;;1.20;;
38940;SDS011;43236;47.208;7.518;2024-02-26T10:57:33;0.82;;;0.82;;
38940;SDS011;43236;47.208;7.518;2024-02-26T11:00:22;1.40;;;0.90;;
38940;SDS011;43236;47.208;7.518;2024-02-26T11:03:11;1.23;;;1.13;;
38940;SDS011;43236;47.208;7.518;2024-02-26T11:06:01;1.30;;;1.20;;
38940;SDS011;43236;47.208;7.518;2024-02-26T11:08:49;1.23;;;1.15;;
38940;SDS011;43236;47.208;7.518;2024-02-26T11:11:37;2.03;;;1.52;;
38940;SDS011;43236;47.208;7.518;2024-02-26T11:14:25;1.02;;;0.90;;
38940;SDS011;43236;47.208;7.518;2024-02-26T11:17:16;0.80;;;0.80;;
38940;SDS011;43236;47.208;7.518;2024-02-26T11:20:09;0.85;;;0.85;;
38940;SDS011;43236;47.208;7.518;2024-02-26T11:22:58;0.73;;;0.73;;
38940;SDS011;43236;47.208;7.518;2024-02-26T11:25:45;0.55;;;0.55;;
38940;SDS011;43236;47.208;7.518;2024-02-26T11:28:32;1.30;;;1.00;;
38940;SDS011;43236;47.208;7.518;2024-02-26T11:31:23;1.17;;;1.08;;
38940;SDS011;43236;47.208;7.518;2024-02-26T11:34:12;1.08;;;0.93;;
38940;SDS011;43236;47.208;7.518;2024-02-26T11:37:09;0.77;;;0.70;;
38940;SDS011;43236;47.208;7.518;2024-02-26T11:39:58;0.68;;;0.68;;
38940;SDS011;43236;47.208;7.518;2024-02-26T11:42:46;0.98;;;0.80;;
38940;SDS011;43236;47.208;7.518;2024-02-26T11:45:38;0.95;;;0.85;;
38940;SDS011;43236;47.208;7.518;2024-02-26T11:48:35;0.82;;;0.80;;
38940;SDS011;43236;47.208;7.518;2024-02-26T11:51:24;0.82;;;0.82;;
38940;SDS011;43236;47.208;7.518;2024-02-26T11:54:14;1.75;;;0.43;;
38940;SDS011;43236;47.208;7.518;2024-02-26T11:57:27;0.68;;;0.68;;
38940;SDS011;43236;47.208;7.518;2024-02-26T12:00:16;0.93;;;0.75;;
38940;SDS011;43236;47.208;7.518;2024-02-26T12:03:07;0.65;;;0.65;;
38940;SDS011;43236;47.208;7.518;2024-02-26T12:05:57;1.10;;;0.85;;
38940;SDS011;43236;47.208;7.518;2024-02-26T12:08:44;0.70;;;0.70;;
38940;SDS011;43236;47.208;7.518;2024-02-26T12:11:33;0.80;;;0.80;;
38940;SDS011;43236;47.208;7.518;2024-02-26T12:14:25;0.65;;;0.65;;
38940;SDS011;43236;47.208;7.518;2024-02-26T12:17:19;1.13;;;0.88;;
38940;SDS011;43236;47.208;7.518;2024-02-26T12:20:10;0.60;;;0.60;;
38940;SDS011;43236;47.208;7.518;2024-02-26T12:22:57;0.95;;;0.73;;
38940;SDS011;43236;47.208;7.518;2024-02-26T12:25:44;1.15;;;0.95;;
38940;SDS011;43236;47.208;7.518;2024-02-26T12:28:35;2.30;;;1.63;;
38940;SDS011;43236;47.208;7.518;2024-02-26T12:31:22;0.60;;;0.60;;
38940;SDS011;43236;47.208;7.518;2024-02-26T12:34:09;0.93;;;0.75;;
38940;SDS011;43236;47.208;7.518;2024-02-26T12:36:56;0.85;;;0.68;;
38940;SDS011;43236;47.208;7.518;2024-02-26T12:39:43;0.60;;;0.60;;
38940;SDS011;43236;47.208;7.518;2024-02-26T12:42:32;0.50;;;0.50;;
38940;SDS011;43236;47.208;7.518;2024-02-26T12:45:26;0.40;;;0.40;;
38940;SDS011;43236;47.208;7.518;2024-02-26T12:48:13;0.77;;;0.77;;
38940;SDS011;43236;47.208;7.518;2024-02-26T12:51:00;1.00;;;0.77;;
38940;SDS011;43236;47.208;7.518;2024-02-26T12:53:48;2.80;;;0.80;;
38940;SDS011;43236;47.208;7.518;2024-02-26T12:56:38;0.63;;;0.63;;
38940;SDS011;43236;47.208;7.518;2024-02-26T12:59:25;0.77;;;0.77;;
38940;SDS011;43236;47.208;7.518;2024-02-26T13:02:14;2.33;;;1.00;;
38940;SDS011;43236;47.208;7.518;2024-02-26T13:05:02;0.55;;;0.55;;
38940;SDS011;43236;47.208;7.518;2024-02-26T13:07:50;1.13;;;1.05;;
38940;SDS011;43236;47.208;7.518;2024-02-26T13:10:38;0.80;;;0.80;;
38940;SDS011;43236;47.208;7.518;2024-02-26T13:13:25;0.65;;;0.63;;
38940;SDS011;43236;47.208;7.518;2024-02-26T13:16:14;0.60;;;0.60;;
38940;SDS011;43236;47.208;7.518;2024-02-26T13:19:09;0.70;;;0.70;;
38940;SDS011;43236;47.208;7.518;2024-02-26T13:21:56;1.05;;;0.93;;
38940;SDS011;43236;47.208;7.518;2024-02-26T13:24:53;0.90;;;0.90;;
38940;SDS011;43236;47.208;7.518;2024-02-26T13:27:40;1.20;;;0.90;;
38940;SDS011;43236;47.208;7.518;2024-02-26T13:30:27;1.25;;;1.25;;
38940;SDS011;43236;47.208;7.518;2024-02-26T13:33:14;1.05;;;0.93;;
38940;SDS011;43236;47.208;7.518;2024-02-26T13:36:04;0.70;;;0.70;;
38940;SDS011;43236;47.208;7.518;2024-02-26T13:38:55;0.85;;;0.85;;
38940;SDS011;43236;47.208;7.518;2024-02-26T13:41:42;0.95;;;0.95;;
38940;SDS011;43236;47.208;7.518;2024-02-26T13:44:29;0.75;;;0.75;;
38940;SDS011;43236;47.208;7.518;2024-02-26T13:47:16;1.23;;;0.80;;
38940;SDS011;43236;47.208;7.518;2024-02-26T13:50:04;0.80;;;0.80;;
38940;SDS011;43236;47.208;7.518;2024-02-26T13:52:53;0.77;;;0.77;;
38940;SDS011;43236;47.208;7.518;2024-02-26T13:55:41;4.95;;;0.85;;
38940;SDS011;43236;47.208;7.518;2024-02-26T13:58:29;2.42;;;1.67;;
38940;SDS011;43236;47.208;7.518;2024-02-26T14:01:16;1.10;;;1.00;;
38940;SDS011;43236;47.208;7.518;2024-02-26T14:04:03;0.70;;;0.70;;
38940;SDS011;43236;47.208;7.518;2024-02-26T14:06:50;1.13;;;0.70;;
38940;SDS011;43236;47.208;7.518;2024-02-26T14:09:38;2.20;;;0.95;;
38940;SDS011;43236;47.208;7.518;2024-02-26T14:12:25;1.13;;;1.00;;
38940;SDS011;43236;47.208;7.518;2024-02-26T14:15:12;1.25;;;0.98;;
38940;SDS011;43236;47.208;7.518;2024-02-26T14:18:00;1.02;;;0.90;;
38940;SDS011;43236;47.208;7.518;2024-02-26T14:20:48;0.88;;;0.70;;
38940;SDS011;43236;47.208;7.518;2024-02-26T14:23:35;1.55;;;1.45;;
38940;SDS011;43236;47.208;7.518;2024-02-26T14:26:24;0.90;;;0.90;;
38940;SDS011;43236;47.208;7.518;2024-02-26T14:29:11;1.08;;;1.00;;
38940;SDS011;43236;47.208;7.518;2024-02-26T14:31:59;0.80;;;0.80;;
38940;SDS011;43236;47.208;7.518;2024-02-26T14:34:46;0.80;;;0.80;;
38940;SDS011;43236;47.208;7.518;2024-02-26T14:37:33;1.63;;;0.98;;
38940;SDS011;43236;47.208;7.518;2024-02-26T14:40:20;1.30;;;1.05;;
38940;SDS011;43236;47.208;7.518;2024-02-26T14:43:09;0.95;;;0.65;;
38940;SDS011;43236;47.208;7.518;2024-02-26T14:45:57;1.65;;;1.38;;
38940;SDS011;43236;47.208;7.518;2024-02-26T14:48:44;1.20;;;1.10;;
38940;SDS011;43236;47.208;7.518;2024-02-26T14:51:31;2.03;;;1.15;;
38940;SDS011;43236;47.208;7.518;2024-02-26T14:54:18;0.73;;;0.73;;
38940;SDS011;43236;47.208;7.518;2024-02-26T14:57:06;1.15;;;0.85;;
38940;SDS011;43236;47.208;7.518;2024-02-26T14:59:55;2.25;;;0.95;;
38940;SDS011;43236;47.208;7.518;2024-02-26T15:02:42;0.90;;;0.90;;
38940;SDS011;43236;47.208;7.518;2024-02-26T15:05:29;1.52;;;1.23;;
38940;SDS011;43236;47.208;7.518;2024-02-26T15:08:16;0.80;;;0.73;;
38940;SDS011;43236;47.208;7.518;2024-02-26T15:11:03;2.78;;;1.17;;
38940;SDS011;43236;47.208;7.518;2024-02-26T15:13:51;1.10;;;1.00;;
38940;SDS011;43236;47.208;7.518;2024-02-26T15:16:40;1.75;;;1.35;;
38940;SDS011;43236;47.208;7.518;2024-02-26T15:19:27;1.90;;;1.20;;
38940;SDS011;43236;47.208;7.518;2024-02-26T15:22:14;4.25;;;2.15;;
38940;SDS011;43236;47.208;7.518;2024-02-26T15:25:01;3.15;;;1.75;;
38940;SDS011;43236;47.208;7.518;2024-02-26T15:27:48;1.52;;;1.42;;
38940;SDS011;43236;47.208;7.518;2024-02-26T15:30:35;3.17;;;1.73;;
38940;SDS011;43236;47.208;7.518;2024-02-26T15:33:24;1.20;;;1.00;;
38940;SDS011;43236;47.208;7.518;2024-02-26T15:36:11;2.70;;;1.98;;
38940;SDS011;43236;47.208;7.518;2024-02-26T15:38:58;2.05;;;1.42;;
38940;SDS011;43236;47.208;7.518;2024-02-26T15:41:45;1.95;;;1.63;;
38940;SDS011;43236;47.208;7.518;2024-02-26T15:44:32;1.65;;;1.17;;
38940;SDS011;43236;47.208;7.518;2024-02-26T15:47:19;1.92;;;0.88;;
38940;SDS011;43236;47.208;7.518;2024-02-26T15:50:08;1.35;;;1.00;;
38940;SDS011;43236;47.208;7.518;2024-02-26T15:52:56;1.52;;;1.35;;
38940;SDS011;43236;47.208;7.518;2024-02-26T15:55:44;1.65;;;1.40;;
38940;SDS011;43236;47.208;7.518;2024-02-26T15:58:31;1.83;;;1.25;;
38940;SDS011;43236;47.208;7.518;2024-02-26T16:01:18;4.25;;;1.85;;
38940;SDS011;43236;47.208;7.518;2024-02-26T16:04:05;2.35;;;1.23;;
38940;SDS011;43236;47.208;7.518;2024-02-26T16:06:56;1.90;;;1.55;;
38940;SDS011;43236;47.208;7.518;2024-02-26T16:09:50;1.55;;;1.00;;
38940;SDS011;43236;47.208;7.518;2024-02-26T16:12:41;1.20;;;1.10;;
38940;SDS011;43236;47.208;7.518;2024-02-26T16:15:34;2.10;;;1.40;;
38940;SDS011;43236;47.208;7.518;2024-02-26T16:18:22;1.25;;;1.15;;
38940;SDS011;43236;47.208;7.518;2024-02-26T16:21:09;1.95;;;1.10;;
38940;SDS011;43236;47.208;7.518;2024-02-26T16:23:58;1.75;;;1.48;;
38940;SDS011;43236;47.208;7.518;2024-02-26T16:26:45;1.30;;;1.20;;
38940;SDS011;43236;47.208;7.518;2024-02-26T16:29:32;1.63;;;1.42;;
38940;SDS011;43236;47.208;7.518;2024-02-26T16:32:19;2.38;;;1.80;;
38940;SDS011;43236;47.208;7.518;2024-02-26T16:35:07;1.63;;;1.52;;
38940;SDS011;43236;47.208;7.518;2024-02-26T16:37:56;1.90;;;1.40;;
38940;SDS011;43236;47.208;7.518;2024-02-26T16:40:44;3.60;;;2.08;;
38940;SDS011;43236;47.208;7.518;2024-02-26T16:43:31;2.50;;;1.33;;
38940;SDS011;43236;47.208;7.518;2024-02-26T16:46:20;5.15;;;2.47;;
38940;SDS011;43236;47.208;7.518;2024-02-26T16:49:08;2.67;;;1.70;;
38940;SDS011;43236;47.208;7.518;2024-02-26T16:51:55;2.88;;;1.77;;
38940;SDS011;43236;47.208;7.518;2024-02-26T16:54:42;2.00;;;1.80;;